sensor_id;sensor_type;location;lat;lon;timestamp;pressure;altitude;pressure_sealevel;temperature;humidity
70206;BME280;57593;55.896;37.396;2023-03-13T00:00:15;97956.31;;;-4.56;100.00
70206;BME280;57593;55.896;37.396;2023-03-13T00:00:46;97956.28;;;-4.51;100.00
70206;BME280;57593;55.896;37.396;2023-03-13T00:01:18;97967.09;;;-4.49;100.00
70206;BME280;57593;55.896;37.396;2023-03-13T00:01:50;97969.19;;;-4.61;100.00
70206;BME280;57593;55.896;37.396;2023-03-13T00:02:20;97964.00;;;-4.51;100.00
70206;BME280;57593;55.896;37.396;2023-03-13T00:02:51;97965.00;;;-4.42;100.00
70206;BME280;57593;55.896;37.396;2023-03-13T00:03:21;97967.28;;;-4.35;100.00
70206;BME280;57593;55.896;37.396;2023-03-13T00:03:52;97965.75;;;-4.36;100.00
70206;BME280;57593;55.896;37.396;2023-03-13T00:04:24;97969.19;;;-4.56;100.00
70206;BME280;57593;55.896;37.396;2023-03-13T00:04:55;97965.84;;;-4.57;100.00
70206;BME280;57593;55.896;37.396;2023-03-13T00:05:25;97970.03;;;-4.71;100.00
70206;BME280;57593;55.896;37.396;2023-03-13T00:05:57;97971.00;;;-4.62;100.00
70206;BME280;57593;55.896;37.396;2023-03-13T00:06:31;97968.94;;;-4.55;100.00
70206;BME280;57593;55.896;37.396;2023-03-13T00:07:02;97973.03;;;-4.48;100.00
70206;BME280;57593;55.896;37.396;2023-03-13T00:07:34;97969.13;;;-4.41;100.00
70206;BME280;57593;55.896;37.396;2023-03-13T00:08:04;97963.19;;;-4.41;100.00
70206;BME280;57593;55.896;37.396;2023-03-13T00:08:35;97970.50;;;-4.59;100.00
70206;BME280;57593;55.896;37.396;2023-03-13T00:09:09;97970.47;;;-4.54;100.00
70206;BME280;57593;55.896;37.396;2023-03-13T00:09:40;97958.09;;;-4.52;100.00
70206;BME280;57593;55.896;37.396;2023-03-13T00:10:11;97962.72;;;-4.54;100.00
70206;BME280;57593;55.896;37.396;2023-03-13T00:10:41;97971.22;;;-4.48;100.00
70206;BME280;57593;55.896;37.396;2023-03-13T00:11:13;97972.25;;;-4.44;100.00
70206;BME280;57593;55.896;37.396;2023-03-13T00:11:45;97971.19;;;-4.43;100.00
70206;BME280;57593;55.896;37.396;2023-03-13T00:12:16;97969.44;;;-4.53;100.00
70206;BME280;57593;55.896;37.396;2023-03-13T00:12:47;97978.72;;;-4.52;100.00
70206;BME280;57593;55.896;37.396;2023-03-13T00:13:18;97980.28;;;-4.56;100.00
70206;BME280;57593;55.896;37.396;2023-03-13T00:13:53;97965.00;;;-4.42;100.00
70206;BME280;57593;55.896;37.396;2023-03-13T00:14:24;97970.38;;;-4.33;100.00
70206;BME280;57593;55.896;37.396;2023-03-13T00:14:54;97964.78;;;-4.51;100.00
70206;BME280;57593;55.896;37.396;2023-03-13T00:15:25;97969.66;;;-4.44;100.00
70206;BME280;57593;55.896;37.396;2023-03-13T00:16:06;97968.88;;;-4.44;100.00
70206;BME280;57593;55.896;37.396;2023-03-13T00:16:37;97968.16;;;-4.55;100.00
70206;BME280;57593;55.896;37.396;2023-03-13T00:17:09;97972.78;;;-4.47;100.00
70206;BME280;57593;55.896;37.396;2023-03-13T00:17:39;97976.13;;;-4.57;100.00
70206;BME280;57593;55.896;37.396;2023-03-13T00:18:10;97970.78;;;-4.65;100.00
70206;BME280;57593;55.896;37.396;2023-03-13T00:18:45;97976.66;;;-4.55;100.00
70206;BME280;57593;55.896;37.396;2023-03-13T00:19:16;97986.69;;;-4.48;100.00
70206;BME280;57593;55.896;37.396;2023-03-13T00:19:46;97985.31;;;-4.35;100.00
70206;BME280;57593;55.896;37.396;2023-03-13T00:20:17;97976.88;;;-4.41;100.00
70206;BME280;57593;55.896;37.396;2023-03-13T00:20:48;97972.78;;;-4.47;100.00
70206;BME280;57593;55.896;37.396;2023-03-13T00:21:22;97974.09;;;-4.60;100.00
70206;BME280;57593;55.896;37.396;2023-03-13T00:21:53;97984.41;;;-4.55;100.00
70206;BME280;57593;55.896;37.396;2023-03-13T00:22:24;97979.50;;;-4.56;100.00
70206;BME280;57593;55.896;37.396;2023-03-13T00:22:54;97978.41;;;-4.45;100.00
70206;BME280;57593;55.896;37.396;2023-03-13T00:23:25;97990.75;;;-4.37;100.00
70206;BME280;57593;55.896;37.396;2023-03-13T00:23:57;97978.91;;;-4.43;100.00
70206;BME280;57593;55.896;37.396;2023-03-13T00:24:28;97989.50;;;-4.44;100.00
70206;BME280;57593;55.896;37.396;2023-03-13T00:24:59;97987.72;;;-4.54;100.00
70206;BME280;57593;55.896;37.396;2023-03-13T00:25:30;97982.28;;;-4.47;100.00
70206;BME280;57593;55.896;37.396;2023-03-13T00:26:05;97981.50;;;-4.43;100.00
70206;BME280;57593;55.896;37.396;2023-03-13T00:26:36;97978.72;;;-4.52;100.00
70206;BME280;57593;55.896;37.396;2023-03-13T00:27:07;98003.69;;;-4.52;100.00
70206;BME280;57593;55.896;37.396;2023-03-13T00:27:37;97991.16;;;-4.74;100.00
70206;BME280;57593;55.896;37.396;2023-03-13T00:28:08;97987.53;;;-4.68;100.00
70206;BME280;57593;55.896;37.396;2023-03-13T00:28:39;97992.66;;;-4.58;100.00
70206;BME280;57593;55.896;37.396;2023-03-13T00:29:10;97987.44;;;-4.47;100.00
70206;BME280;57593;55.896;37.396;2023-03-13T00:29:41;97985.13;;;-4.49;100.00
70206;BME280;57593;55.896;37.396;2023-03-13T00:30:12;97987.63;;;-4.34;100.00
70206;BME280;57593;55.896;37.396;2023-03-13T00:30:42;97997.16;;;-4.29;100.00
70206;BME280;57593;55.896;37.396;2023-03-13T00:31:16;97995.28;;;-4.18;100.00
70206;BME280;57593;55.896;37.396;2023-03-13T00:31:46;98002.38;;;-4.39;100.00
70206;BME280;57593;55.896;37.396;2023-03-13T00:32:17;97995.44;;;-4.49;100.00
70206;BME280;57593;55.896;37.396;2023-03-13T00:32:48;97994.66;;;-4.44;100.00
70206;BME280;57593;55.896;37.396;2023-03-13T00:33:18;97992.03;;;-4.34;100.00
70206;BME280;57593;55.896;37.396;2023-03-13T00:33:53;98001.78;;;-4.26;100.00
70206;BME280;57593;55.896;37.396;2023-03-13T00:34:23;98000.50;;;-4.23;100.00
70206;BME280;57593;55.896;37.396;2023-03-13T00:34:56;97996.69;;;-4.36;100.00
70206;BME280;57593;55.896;37.396;2023-03-13T00:35:28;98007.72;;;-4.30;100.00
70206;BME280;57593;55.896;37.396;2023-03-13T00:36:00;98005.16;;;-4.30;100.00
70206;BME280;57593;55.896;37.396;2023-03-13T00:36:33;98000.81;;;-4.40;100.00
70206;BME280;57593;55.896;37.396;2023-03-13T00:37:05;98005.75;;;-4.44;100.00
70206;BME280;57593;55.896;37.396;2023-03-13T00:37:36;98009.09;;;-4.43;100.00
70206;BME280;57593;55.896;37.396;2023-03-13T00:38:07;98006.75;;;-4.40;100.00
70206;BME280;57593;55.896;37.396;2023-03-13T00:38:38;98010.94;;;-4.54;100.00
70206;BME280;57593;55.896;37.396;2023-03-13T00:39:09;98007.25;;;-4.43;100.00
70206;BME280;57593;55.896;37.396;2023-03-13T00:39:39;97996.72;;;-4.46;100.00
70206;BME280;57593;55.896;37.396;2023-03-13T00:40:10;97992.81;;;-4.39;100.00
70206;BME280;57593;55.896;37.396;2023-03-13T00:40:41;98001.84;;;-4.41;100.00
70206;BME280;57593;55.896;37.396;2023-03-13T00:41:17;98003.66;;;-4.42;100.00
70206;BME280;57593;55.896;37.396;2023-03-13T00:41:48;98012.16;;;-4.41;100.00
70206;BME280;57593;55.896;37.396;2023-03-13T00:42:18;98010.44;;;-4.61;100.00
70206;BME280;57593;55.896;37.396;2023-03-13T00:42:49;98001.41;;;-4.59;100.00
70206;BME280;57593;55.896;37.396;2023-03-13T00:43:20;98003.75;;;-4.67;100.00
70206;BME280;57593;55.896;37.396;2023-03-13T00:43:51;98008.91;;;-4.62;100.00
70206;BME280;57593;55.896;37.396;2023-03-13T00:44:22;98002.91;;;-4.42;100.00
70206;BME280;57593;55.896;37.396;2023-03-13T00:44:53;98005.72;;;-4.39;100.00
70206;BME280;57593;55.896;37.396;2023-03-13T00:45:23;98015.53;;;-4.46;100.00
70206;BME280;57593;55.896;37.396;2023-03-13T00:45:54;98009.59;;;-4.46;100.00
70206;BME280;57593;55.896;37.396;2023-03-13T00:46:27;98010.34;;;-4.36;100.00
70206;BME280;57593;55.896;37.396;2023-03-13T00:46:58;98009.00;;;-4.28;100.00
70206;BME280;57593;55.896;37.396;2023-03-13T00:47:31;98011.94;;;-4.50;100.00
70206;BME280;57593;55.896;37.396;2023-03-13T00:48:02;98012.94;;;-4.46;100.00
70206;BME280;57593;55.896;37.396;2023-03-13T00:48:36;98013.50;;;-4.54;100.00
70206;BME280;57593;55.896;37.396;2023-03-13T00:49:07;98012.47;;;-4.58;100.00
70206;BME280;57593;55.896;37.396;2023-03-13T00:49:38;98013.00;;;-4.56;100.00
70206;BME280;57593;55.896;37.396;2023-03-13T00:50:09;98015.53;;;-4.46;100.00
70206;BME280;57593;55.896;37.396;2023-03-13T00:50:39;98011.41;;;-4.42;100.00
70206;BME280;57593;55.896;37.396;2023-03-13T00:51:10;98018.94;;;-4.66;100.00
70206;BME280;57593;55.896;37.396;2023-03-13T00:51:41;98019.94;;;-4.52;100.00
70206;BME280;57593;55.896;37.396;2023-03-13T00:52:11;98028.19;;;-4.49;100.00
70206;BME280;57593;55.896;37.396;2023-03-13T00:52:42;98025.16;;;-4.67;100.00
70206;BME280;57593;55.896;37.396;2023-03-13T00:53:13;98021.72;;;-4.52;100.00
70206;BME280;57593;55.896;37.396;2023-03-13T00:53:44;98030.78;;;-4.60;100.00
70206;BME280;57593;55.896;37.396;2023-03-13T00:54:15;98020.41;;;-4.44;100.00
70206;BME280;57593;55.896;37.396;2023-03-13T00:54:45;98027.41;;;-4.50;100.00
70206;BME280;57593;55.896;37.396;2023-03-13T00:55:16;98029.53;;;-4.73;100.00
70206;BME280;57593;55.896;37.396;2023-03-13T00:56:31;98026.94;;;-4.62;100.00
70206;BME280;57593;55.896;37.396;2023-03-13T00:57:02;98025.41;;;-4.68;100.00
70206;BME280;57593;55.896;37.396;2023-03-13T00:57:33;98025.63;;;-4.55;100.00
70206;BME280;57593;55.896;37.396;2023-03-13T00:58:06;98030.28;;;-4.62;100.00
70206;BME280;57593;55.896;37.396;2023-03-13T00:58:40;98021.28;;;-4.70;100.00
70206;BME280;57593;55.896;37.396;2023-03-13T00:59:10;98030.25;;;-4.57;100.00
70206;BME280;57593;55.896;37.396;2023-03-13T00:59:41;98025.88;;;-4.56;100.00
70206;BME280;57593;55.896;37.396;2023-03-13T01:00:12;98036.13;;;-4.46;100.00
70206;BME280;57593;55.896;37.396;2023-03-13T01:00:45;98028.94;;;-4.44;100.00
70206;BME280;57593;55.896;37.396;2023-03-13T01:01:24;98034.09;;;-4.44;100.00
70206;BME280;57593;55.896;37.396;2023-03-13T01:01:55;98031.25;;;-4.47;100.00
70206;BME280;57593;55.896;37.396;2023-03-13T01:02:26;98036.16;;;-4.51;100.00
70206;BME280;57593;55.896;37.396;2023-03-13T01:02:57;98035.91;;;-4.49;100.00
70206;BME280;57593;55.896;37.396;2023-03-13T01:03:28;98034.38;;;-4.56;100.00
70206;BME280;57593;55.896;37.396;2023-03-13T01:04:01;98043.16;;;-4.62;100.00
70206;BME280;57593;55.896;37.396;2023-03-13T01:04:34;98036.00;;;-4.75;100.00
70206;BME280;57593;55.896;37.396;2023-03-13T01:05:05;98039.06;;;-4.73;100.00
70206;BME280;57593;55.896;37.396;2023-03-13T01:05:35;98049.66;;;-4.80;100.00
70206;BME280;57593;55.896;37.396;2023-03-13T01:06:09;98044.97;;;-4.67;100.00
70206;BME280;57593;55.896;37.396;2023-03-13T01:06:41;98049.88;;;-4.71;100.00
70206;BME280;57593;55.896;37.396;2023-03-13T01:07:12;98047.53;;;-4.67;100.00
70206;BME280;57593;55.896;37.396;2023-03-13T01:07:42;98049.63;;;-4.75;100.00
70206;BME280;57593;55.896;37.396;2023-03-13T01:08:13;98051.16;;;-4.74;100.00
70206;BME280;57593;55.896;37.396;2023-03-13T01:08:44;98049.13;;;-4.72;100.00
70206;BME280;57593;55.896;37.396;2023-03-13T01:09:15;98054.50;;;-4.68;100.00
70206;BME280;57593;55.896;37.396;2023-03-13T01:09:46;98054.78;;;-4.70;100.00
70206;BME280;57593;55.896;37.396;2023-03-13T01:10:16;98065.84;;;-4.69;100.00
70206;BME280;57593;55.896;37.396;2023-03-13T01:10:47;98058.88;;;-4.63;100.00
70206;BME280;57593;55.896;37.396;2023-03-13T01:11:21;98071.78;;;-4.68;100.00
70206;BME280;57593;55.896;37.396;2023-03-13T01:11:52;98069.69;;;-4.61;100.00
70206;BME280;57593;55.896;37.396;2023-03-13T01:12:22;98067.38;;;-4.68;100.00
70206;BME280;57593;55.896;37.396;2023-03-13T01:12:53;98077.19;;;-4.80;100.00
70206;BME280;57593;55.896;37.396;2023-03-13T01:13:24;98070.78;;;-4.78;100.00
70206;BME280;57593;55.896;37.396;2023-03-13T01:13:59;98051.97;;;-4.78;100.00
70206;BME280;57593;55.896;37.396;2023-03-13T01:14:30;98061.47;;;-4.74;100.00
70206;BME280;57593;55.896;37.396;2023-03-13T01:15:01;98069.22;;;-4.68;100.00
70206;BME280;57593;55.896;37.396;2023-03-13T01:15:34;98067.44;;;-4.78;100.00
70206;BME280;57593;55.896;37.396;2023-03-13T01:16:24;98076.97;;;-4.84;100.00
70206;BME280;57593;55.896;37.396;2023-03-13T01:16:55;98071.81;;;-4.84;100.00
70206;BME280;57593;55.896;37.396;2023-03-13T01:17:28;98069.47;;;-4.75;100.00
70206;BME280;57593;55.896;37.396;2023-03-13T01:18:00;98062.53;;;-4.80;100.00
70206;BME280;57593;55.896;37.396;2023-03-13T01:18:31;98073.63;;;-4.84;100.00
70206;BME280;57593;55.896;37.396;2023-03-13T01:19:05;98069.25;;;-4.89;100.00
70206;BME280;57593;55.896;37.396;2023-03-13T01:19:36;98076.69;;;-4.77;100.00
70206;BME280;57593;55.896;37.396;2023-03-13T01:20:07;98073.09;;;-4.81;100.00
70206;BME280;57593;55.896;37.396;2023-03-13T01:20:40;98075.16;;;-4.89;100.00
70206;BME280;57593;55.896;37.396;2023-03-13T01:21:12;98070.28;;;-4.90;100.00
70206;BME280;57593;55.896;37.396;2023-03-13T01:21:44;98081.09;;;-4.83;100.00
70206;BME280;57593;55.896;37.396;2023-03-13T01:22:15;98081.06;;;-4.88;100.00
70206;BME280;57593;55.896;37.396;2023-03-13T01:22:46;98078.25;;;-4.87;100.00
70206;BME280;57593;55.896;37.396;2023-03-13T01:23:16;98085.97;;;-4.81;100.00
70206;BME280;57593;55.896;37.396;2023-03-13T01:23:48;98087.22;;;-4.74;100.00
70206;BME280;57593;55.896;37.396;2023-03-13T01:24:19;98085.19;;;-4.72;100.00
70206;BME280;57593;55.896;37.396;2023-03-13T01:24:49;98085.47;;;-4.78;100.00
70206;BME280;57593;55.896;37.396;2023-03-13T01:25:21;98082.38;;;-4.85;100.00
70206;BME280;57593;55.896;37.396;2023-03-13T01:25:54;98087.25;;;-4.84;100.00
70206;BME280;57593;55.896;37.396;2023-03-13T01:26:25;98080.56;;;-4.85;100.00
70206;BME280;57593;55.896;37.396;2023-03-13T01:26:57;98090.34;;;-4.82;100.00
70206;BME280;57593;55.896;37.396;2023-03-13T01:27:28;98098.06;;;-4.77;100.00
70206;BME280;57593;55.896;37.396;2023-03-13T01:27:59;98084.66;;;-4.79;100.00
70206;BME280;57593;55.896;37.396;2023-03-13T01:28:31;98090.59;;;-4.73;100.00
70206;BME280;57593;55.896;37.396;2023-03-13T01:29:02;98098.81;;;-4.71;100.00
70206;BME280;57593;55.896;37.396;2023-03-13T01:29:33;98101.16;;;-4.85;100.00
70206;BME280;57593;55.896;37.396;2023-03-13T01:30:04;98097.31;;;-4.88;100.00
70206;BME280;57593;55.896;37.396;2023-03-13T01:30:35;98100.41;;;-4.75;100.00
70206;BME280;57593;55.896;37.396;2023-03-13T01:31:22;98091.66;;;-4.84;100.00
70206;BME280;57593;55.896;37.396;2023-03-13T01:31:53;98104.28;;;-4.83;100.00
70206;BME280;57593;55.896;37.396;2023-03-13T01:32:23;98104.25;;;-4.88;100.00
70206;BME280;57593;55.896;37.396;2023-03-13T01:32:54;98098.06;;;-4.87;100.00
70206;BME280;57593;55.896;37.396;2023-03-13T01:33:25;98100.66;;;-4.82;100.00
70206;BME280;57593;55.896;37.396;2023-03-13T01:33:57;98097.56;;;-4.94;100.00
70206;BME280;57593;55.896;37.396;2023-03-13T01:34:28;98108.66;;;-4.89;100.00
70206;BME280;57593;55.896;37.396;2023-03-13T01:34:59;98109.41;;;-4.93;100.00
70206;BME280;57593;55.896;37.396;2023-03-13T01:35:30;98112.50;;;-4.91;100.00
70206;BME280;57593;55.896;37.396;2023-03-13T01:36:03;98108.91;;;-5.00;100.00
70206;BME280;57593;55.896;37.396;2023-03-13T01:36:35;98110.44;;;-4.94;100.00
70206;BME280;57593;55.896;37.396;2023-03-13T01:37:07;98108.91;;;-5.00;100.00
70206;BME280;57593;55.896;37.396;2023-03-13T01:37:37;98111.47;;;-5.00;100.00
70206;BME280;57593;55.896;37.396;2023-03-13T01:38:08;98105.81;;;-5.02;100.00
70206;BME280;57593;55.896;37.396;2023-03-13T01:38:39;98122.53;;;-5.05;100.00
70206;BME280;57593;55.896;37.396;2023-03-13T01:39:10;98131.81;;;-5.14;100.00
70206;BME280;57593;55.896;37.396;2023-03-13T01:39:41;98117.38;;;-5.05;100.00
70206;BME280;57593;55.896;37.396;2023-03-13T01:40:12;98116.63;;;-5.00;100.00
70206;BME280;57593;55.896;37.396;2023-03-13T01:40:46;98120.75;;;-5.04;100.00
70206;BME280;57593;55.896;37.396;2023-03-13T01:41:18;98115.09;;;-5.01;100.00
70206;BME280;57593;55.896;37.396;2023-03-13T01:41:49;98114.56;;;-4.98;100.00
70206;BME280;57593;55.896;37.396;2023-03-13T01:42:20;98115.34;;;-5.03;100.00
70206;BME280;57593;55.896;37.396;2023-03-13T01:42:58;98117.94;;;-5.03;100.00
70206;BME280;57593;55.896;37.396;2023-03-13T01:43:31;98118.69;;;-5.02;100.00
70206;BME280;57593;55.896;37.396;2023-03-13T01:44:03;98119.97;;;-5.10;100.00
70206;BME280;57593;55.896;37.396;2023-03-13T01:44:54;98132.09;;;-5.11;100.00
70206;BME280;57593;55.896;37.396;2023-03-13T01:46:53;98128.72;;;-5.21;100.00
70206;BME280;57593;55.896;37.396;2023-03-13T01:47:27;98126.91;;;-5.16;100.00
70206;BME280;57593;55.896;37.396;2023-03-13T01:48:12;98127.94;;;-5.27;100.00
70206;BME280;57593;55.896;37.396;2023-03-13T01:49:18;98135.66;;;-5.22;100.00
70206;BME280;57593;55.896;37.396;2023-03-13T01:50:13;98136.16;;;-5.25;100.00
70206;BME280;57593;55.896;37.396;2023-03-13T01:51:10;98132.06;;;-5.21;100.00
70206;BME280;57593;55.896;37.396;2023-03-13T01:51:56;98139.53;;;-5.19;100.00
70206;BME280;57593;55.896;37.396;2023-03-13T01:52:28;98144.44;;;-5.28;100.00
70206;BME280;57593;55.896;37.396;2023-03-13T01:53:11;98132.56;;;-5.39;100.00
70206;BME280;57593;55.896;37.396;2023-03-13T01:53:45;98143.34;;;-5.43;100.00
70206;BME280;57593;55.896;37.396;2023-03-13T01:54:56;98142.84;;;-5.45;100.00
70206;BME280;57593;55.896;37.396;2023-03-13T01:55:29;98144.66;;;-5.40;100.00
70206;BME280;57593;55.896;37.396;2023-03-13T01:56:03;98156.75;;;-5.35;100.00
70206;BME280;57593;55.896;37.396;2023-03-13T01:56:47;98148.53;;;-5.27;100.00
70206;BME280;57593;55.896;37.396;2023-03-13T01:57:46;98154.44;;;-5.37;100.00
70206;BME280;57593;55.896;37.396;2023-03-13T01:58:16;98146.97;;;-5.38;100.00
70206;BME280;57593;55.896;37.396;2023-03-13T01:58:48;98151.34;;;-5.24;100.00
70206;BME280;57593;55.896;37.396;2023-03-13T01:59:37;98155.47;;;-5.38;100.00
70206;BME280;57593;55.896;37.396;2023-03-13T02:00:14;98151.09;;;-5.37;100.00
70206;BME280;57593;55.896;37.396;2023-03-13T02:00:47;98151.06;;;-5.48;100.00
70206;BME280;57593;55.896;37.396;2023-03-13T02:01:19;98164.44;;;-5.46;100.00
70206;BME280;57593;55.896;37.396;2023-03-13T02:01:52;98163.94;;;-5.48;100.00
70206;BME280;57593;55.896;37.396;2023-03-13T02:02:25;98161.13;;;-5.41;100.00
70206;BME280;57593;55.896;37.396;2023-03-13T02:03:00;98173.97;;;-5.41;100.00
70206;BME280;57593;55.896;37.396;2023-03-13T02:03:34;98161.91;;;-5.35;100.00
70206;BME280;57593;55.896;37.396;2023-03-13T02:04:06;98168.84;;;-5.46;100.00
70206;BME280;57593;55.896;37.396;2023-03-13T02:04:44;98169.09;;;-5.48;100.00
70206;BME280;57593;55.896;37.396;2023-03-13T02:05:18;98170.09;;;-5.49;100.00
70206;BME280;57593;55.896;37.396;2023-03-13T02:05:50;98170.13;;;-5.44;100.00
70206;BME280;57593;55.896;37.396;2023-03-13T02:06:21;98162.41;;;-5.38;100.00
70206;BME280;57593;55.896;37.396;2023-03-13T02:06:55;98163.72;;;-5.36;100.00
70206;BME280;57593;55.896;37.396;2023-03-13T02:07:33;98166.81;;;-5.34;100.00
70206;BME280;57593;55.896;37.396;2023-03-13T02:08:11;98169.13;;;-5.37;100.00
70206;BME280;57593;55.896;37.396;2023-03-13T02:08:48;98175.78;;;-5.42;100.00
70206;BME280;57593;55.896;37.396;2023-03-13T02:09:23;98161.38;;;-5.43;100.00
70206;BME280;57593;55.896;37.396;2023-03-13T02:09:56;98181.41;;;-5.60;100.00
70206;BME280;57593;55.896;37.396;2023-03-13T02:10:28;98171.09;;;-5.60;100.00
70206;BME280;57593;55.896;37.396;2023-03-13T02:11:15;98180.63;;;-5.55;100.00
70206;BME280;57593;55.896;37.396;2023-03-13T02:12:10;98181.94;;;-5.53;100.00
70206;BME280;57593;55.896;37.396;2023-03-13T02:12:43;98188.88;;;-5.58;100.00
70206;BME280;57593;55.896;37.396;2023-03-13T02:13:15;98179.84;;;-5.61;100.00
70206;BME280;57593;55.896;37.396;2023-03-13T02:13:47;98179.09;;;-5.56;100.00
70206;BME280;57593;55.896;37.396;2023-03-13T02:14:21;98183.50;;;-5.47;100.00
70206;BME280;57593;55.896;37.396;2023-03-13T02:14:52;98184.25;;;-5.51;100.00
70206;BME280;57593;55.896;37.396;2023-03-13T02:15:25;98188.59;;;-5.57;100.00
70206;BME280;57593;55.896;37.396;2023-03-13T02:15:57;98192.22;;;-5.53;100.00
70206;BME280;57593;55.896;37.396;2023-03-13T02:16:28;98197.91;;;-5.51;100.00
70206;BME280;57593;55.896;37.396;2023-03-13T02:16:59;98186.34;;;-5.48;100.00
70206;BME280;57593;55.896;37.396;2023-03-13T02:17:33;98192.50;;;-5.49;100.00
70206;BME280;57593;55.896;37.396;2023-03-13T02:18:06;98190.44;;;-5.47;100.00
70206;BME280;57593;55.896;37.396;2023-03-13T02:18:36;98192.25;;;-5.43;100.00
70206;BME280;57593;55.896;37.396;2023-03-13T02:19:16;98193.00;;;-5.47;100.00
70206;BME280;57593;55.896;37.396;2023-03-13T02:19:49;98194.50;;;-5.62;100.00
70206;BME280;57593;55.896;37.396;2023-03-13T02:20:23;98194.50;;;-5.67;100.00
70206;BME280;57593;55.896;37.396;2023-03-13T02:21:03;98197.34;;;-5.58;100.00
70206;BME280;57593;55.896;37.396;2023-03-13T02:22:15;98198.63;;;-5.61;100.00
70206;BME280;57593;55.896;37.396;2023-03-13T02:23:02;98198.41;;;-5.54;100.00
70206;BME280;57593;55.896;37.396;2023-03-13T02:23:49;98197.84;;;-5.61;100.00
70206;BME280;57593;55.896;37.396;2023-03-13T02:25:42;98196.78;;;-5.70;100.00
70206;BME280;57593;55.896;37.396;2023-03-13T02:26:14;98200.47;;;-5.56;100.00
70206;BME280;57593;55.896;37.396;2023-03-13T02:26:45;98203.00;;;-5.61;100.00
70206;BME280;57593;55.896;37.396;2023-03-13T02:27:17;98215.91;;;-5.56;100.00
70206;BME280;57593;55.896;37.396;2023-03-13T02:27:55;98211.69;;;-5.78;100.00
70206;BME280;57593;55.896;37.396;2023-03-13T02:28:30;98216.03;;;-5.78;100.00
70206;BME280;57593;55.896;37.396;2023-03-13T02:29:08;98209.41;;;-5.69;100.00
70206;BME280;57593;55.896;37.396;2023-03-13T02:29:47;98204.75;;;-5.72;100.00
70206;BME280;57593;55.896;37.396;2023-03-13T02:30:19;98207.63;;;-5.68;100.00
70206;BME280;57593;55.896;37.396;2023-03-13T02:30:54;98219.44;;;-5.67;100.00
70206;BME280;57593;55.896;37.396;2023-03-13T02:31:25;98218.41;;;-5.71;100.00
70206;BME280;57593;55.896;37.396;2023-03-13T02:31:56;98208.38;;;-5.73;100.00
70206;BME280;57593;55.896;37.396;2023-03-13T02:32:28;98207.63;;;-5.63;100.00
70206;BME280;57593;55.896;37.396;2023-03-13T02:33:00;98212.78;;;-5.63;100.00
70206;BME280;57593;55.896;37.396;2023-03-13T02:33:36;98219.47;;;-5.57;100.00
70206;BME280;57593;55.896;37.396;2023-03-13T02:34:11;98221.31;;;-5.52;100.00
70206;BME280;57593;55.896;37.396;2023-03-13T02:34:43;98213.59;;;-5.52;100.00
70206;BME280;57593;55.896;37.396;2023-03-13T02:35:19;98219.47;;;-5.62;100.00
70206;BME280;57593;55.896;37.396;2023-03-13T02:35:52;98226.69;;;-5.59;100.00
70206;BME280;57593;55.896;37.396;2023-03-13T02:36:23;98227.47;;;-5.53;100.00
70206;BME280;57593;55.896;37.396;2023-03-13T02:36:55;98227.22;;;-5.52;100.00
70206;BME280;57593;55.896;37.396;2023-03-13T02:37:29;98226.75;;;-5.44;100.00
70206;BME280;57593;55.896;37.396;2023-03-13T02:38:03;98234.72;;;-5.45;100.00
70206;BME280;57593;55.896;37.396;2023-03-13T02:38:43;98229.81;;;-5.47;100.00
70206;BME280;57593;55.896;37.396;2023-03-13T02:39:17;98230.34;;;-5.45;100.00
70206;BME280;57593;55.896;37.396;2023-03-13T02:39:50;98231.09;;;-5.49;100.00
70206;BME280;57593;55.896;37.396;2023-03-13T02:40:25;98235.66;;;-5.67;100.00
70206;BME280;57593;55.896;37.396;2023-03-13T02:41:00;98236.72;;;-5.57;100.00
70206;BME280;57593;55.896;37.396;2023-03-13T02:41:33;98230.84;;;-5.48;100.00
70206;BME280;57593;55.896;37.396;2023-03-13T02:42:04;98236.47;;;-5.56;100.00
70206;BME280;57593;55.896;37.396;2023-03-13T02:42:41;98238.50;;;-5.58;100.00
70206;BME280;57593;55.896;37.396;2023-03-13T02:43:29;98244.69;;;-5.59;100.00
70206;BME280;57593;55.896;37.396;2023-03-13T02:44:00;98237.97;;;-5.65;100.00
70206;BME280;57593;55.896;37.396;2023-03-13T02:44:37;98255.19;;;-5.71;100.00
70206;BME280;57593;55.896;37.396;2023-03-13T02:45:09;98248.53;;;-5.67;100.00
70206;BME280;57593;55.896;37.396;2023-03-13T02:45:39;98253.94;;;-5.63;100.00
70206;BME280;57593;55.896;37.396;2023-03-13T02:46:16;98253.91;;;-5.68;100.00
70206;BME280;57593;55.896;37.396;2023-03-13T02:46:50;98254.13;;;-5.75;100.00
70206;BME280;57593;55.896;37.396;2023-03-13T02:47:25;98256.66;;;-5.80;100.00
70206;BME280;57593;55.896;37.396;2023-03-13T02:47:57;98245.38;;;-5.79;100.00
70206;BME280;57593;55.896;37.396;2023-03-13T02:48:39;98250.53;;;-5.69;100.00
70206;BME280;57593;55.896;37.396;2023-03-13T02:49:25;98245.94;;;-5.67;100.00
70206;BME280;57593;55.896;37.396;2023-03-13T02:49:57;98249.03;;;-5.65;100.00
70206;BME280;57593;55.896;37.396;2023-03-13T02:50:29;98250.34;;;-5.62;100.00
70206;BME280;57593;55.896;37.396;2023-03-13T02:51:02;98251.88;;;-5.61;100.00
70206;BME280;57593;55.896;37.396;2023-03-13T02:51:39;98251.84;;;-5.71;100.00
70206;BME280;57593;55.896;37.396;2023-03-13T02:52:50;98252.38;;;-5.64;100.00
70206;BME280;57593;55.896;37.396;2023-03-13T02:53:22;98248.28;;;-5.65;100.00
70206;BME280;57593;55.896;37.396;2023-03-13T02:53:55;98252.66;;;-5.61;100.00
70206;BME280;57593;55.896;37.396;2023-03-13T02:54:33;98251.34;;;-5.68;100.00
70206;BME280;57593;55.896;37.396;2023-03-13T02:55:11;98248.22;;;-5.70;100.00
70206;BME280;57593;55.896;37.396;2023-03-13T02:55:43;98249.28;;;-5.66;100.00
70206;BME280;57593;55.896;37.396;2023-03-13T02:56:16;98252.91;;;-5.62;100.00
70206;BME280;57593;55.896;37.396;2023-03-13T02:56:55;98256.94;;;-5.77;100.00
70206;BME280;57593;55.896;37.396;2023-03-13T02:57:30;98260.81;;;-5.79;100.00